메인 페이지
METAR-TAF:

METAR-TAF

공항 :

다르에스살람, 탄자니아

위도: 06-52S, 경도: 039-12E, 고도: 55m

현재 날씨관측

예보는 1 시간 10분 전, 18:00시(UTC)에 발표되었습니다.
여러 방향의 바람 2kt
온도 27°C
습도 89%
기압 1012 hPa
시정 10km 이상
고도 1300ft 상공 구름 조금
고도 7000ft 상공 구름 많음

METAR: HTDA 041800Z VRB02KT 9999 FEW013 BKN070 27/25 Q1012 NOSIG

시각: 22:10 (19:10 UTC)

예보

예보는 2 시간 10분 전, 17:00시(UTC)에 발표되었습니다.
예보 대상 시간: 04일 18시부터 05일 24시까지 (UTC)
남동10kt
시정 10km 이상
고도 1600ft 상공 구름 많음
고도 1700ft 상공 구름 조금, 적란운.
일시적
05일 08시부터 05일 13시까지 (UTC)
뇌우, 비
전환 중
05일 17시부터 05일 20시까지 (UTC)
고도 1300ft 상공 구름 보통
고도 1400ft 상공 구름 조금, 적란운.

TAF: HTDA 041700Z 0418/0524 13010KT 9999 BKN016 FEW017CB TEMPO 0508/0513 TSRA BECMG 0517/0520 SCT013 FEW014CB

4,000개 이상의 공항 관측 자료 및 예보 (METAR 및 TAF 보고).

지도상에서 검색 가능한 기상관측소가 노란 점과 빨간 점으로 표시되어 있습니다.

기상관측소 명을 보려면 표시 위로 마우스를 이동하세요.

날씨 관측과 예보를 보려면 클릭하세요.

지도 변경 : 확대하려면 엑스 표시가 있는 녹색 버튼, 축소하려면 빼기 표시가 있는 녹색 버튼, 다음 페이지의 지도를 보려면 녹색 화살표를 클릭하세요.


METAR-TAF: